Portada
METAR-TAF:

METAR-TAF

Aeropuertos :

Aeropuerto Internacional Enfidha-Hammamet

Hammamet, Túnez

latitud: 36-04-34N, longitud: 10-26-19E, altitud: 6 m

Observación

El informe se hizo hace 32 minutos, a las 07:30 UTC
Viento 2 kt del sur
Temperatura 9°C
Humedad 100%
Presión 1022 hPa
Visibilidad: 0500 m
niebla

METAR: DTNH 070730Z 19002KT 0500 R27/0500V1100U FG NSC 09/09 Q1022

Hora: 09:02 (08:02 UTC)

Pronóstico

El informe se hizo hace 3 horas y 2 minutos, a las 05:00 UTC
Pronóstico válido del 07 a las 06 UTC al 08 a las 06 UTC
Viento 2 kt del sur
Visibilidad: 2000 m
Escasas nubes a una altura de 2600 ft
neblina
Evolucionando progresivamente
del 07 a las 07 UTC al 07 a las 09 UTC
Viento 10 kt del este-sureste
Visibilidad: 7000 m
Evolucionando progresivamente
del 07 a las 20 UTC al 07 a las 22 UTC
Viento 3 kt con dirección variable

TAF: DTNH 070500Z 0706/0806 19002KT 2000 BR FEW026 BECMG 0707/0709 12010KT 7000 BECMG 0720/0722 VRB03KT

Observaciones y pronósticos meteorológicos de más de 4000 aeropuertos (mensajes METAR y TAF).

Los puntos amarillos y rojos representan las estaciones disponibles.

Ponga el ratón en el punto deseado para ver el nombre de la estación.

Haga clic para ver las observaciones y los pronósticos meteorológicos.

Para cambiar el mapa : haga clic en los botones verdes con una cruz de color negro para hacer un zoom, en el botón verde con un guión para alejar o en las flechas verdes para mapas adyacentes.


METAR-TAF: